createdAt,value
2023-03-07T00:07:06.577Z,500.00
2023-03-07T00:08:03.421Z,500.00
2023-03-07T06:23:12.985Z,500.00
2023-03-07T06:25:41.632Z,500.00
2023-03-07T06:41:27.923Z,500.00
2023-03-07T06:44:04.568Z,500.00
2023-03-07T06:48:40.579Z,500.00
2023-03-07T07:06:59.591Z,500.00
2023-03-07T07:07:59.050Z,500.00
2023-03-07T07:09:00.283Z,500.00
2023-03-07T07:11:17.427Z,500.00
2023-03-07T07:16:36.538Z,500.00
2023-03-07T07:29:55.412Z,500.00
2023-03-07T07:30:55.975Z,500.00
2023-03-07T07:35:02.509Z,500.00
2023-03-07T07:37:23.599Z,500.00
2023-03-07T07:39:40.881Z,500.00
2023-03-07T07:40:42.308Z,500.00
2023-03-07T07:43:05.787Z,500.00
2023-03-07T07:46:44.143Z,500.00
2023-03-07T08:10:44.562Z,500.00
2023-03-07T08:13:07.118Z,500.00
2023-03-07T08:14:07.161Z,500.00
2023-03-07T08:16:25.787Z,500.00
2023-03-07T08:19:45.188Z,500.00
2023-03-07T08:22:01.514Z,500.00
2023-03-07T08:28:56.704Z,500.00
2023-03-07T08:29:56.773Z,500.00
2023-03-07T08:30:57.467Z,500.00
2023-03-07T08:37:15.833Z,500.00
2023-03-07T08:45:18.007Z,500.00
2023-03-07T08:46:18.176Z,500.00
2023-03-07T08:55:55.951Z,500.00
2023-03-07T08:56:55.540Z,500.00
2023-03-07T08:59:15.558Z,500.00
2023-03-07T09:07:52.260Z,500.00
2023-03-07T09:08:52.864Z,500.00
2023-03-07T09:09:52.155Z,500.00
2023-03-07T09:12:11.176Z,500.00
2023-03-07T09:19:02.670Z,500.00
2023-03-07T09:35:08.054Z,500.00
2023-03-07T09:36:07.826Z,500.00
2023-03-07T09:37:07.991Z,500.00
2023-03-07T09:38:07.582Z,500.00
2023-03-07T09:39:07.627Z,500.00
2023-03-07T09:41:39.535Z,500.00
2023-03-07T10:08:43.425Z,500.00
2023-03-07T10:11:19.944Z,500.00
2023-03-07T10:12:32.377Z,500.00
2023-03-07T10:13:56.552Z,500.00
2023-03-07T10:15:08.866Z,500.00
2023-03-07T10:16:12.505Z,500.00
2023-03-07T10:17:11.984Z,500.00
2023-03-07T10:18:12.017Z,500.00
2023-03-07T10:19:11.960Z,500.00
2023-03-07T10:20:12.145Z,500.00
2023-03-07T10:21:11.949Z,485.00
2023-03-07T10:22:11.921Z,457.00
2023-03-07T10:23:11.904Z,500.00
2023-03-07T10:24:11.985Z,619.00
2023-03-07T10:25:12.252Z,688.00
2023-03-07T10:26:11.935Z,640.00
2023-03-07T10:27:11.887Z,586.00
2023-03-07T10:28:11.894Z,495.00
2023-03-07T10:29:11.846Z,500.00
2023-03-07T10:30:11.853Z,500.00
2023-03-07T10:31:11.870Z,508.00
2023-03-07T10:32:12.210Z,657.00
2023-03-07T10:33:11.919Z,655.00
2023-03-07T10:34:19.837Z,524.00
2023-03-07T10:35:13.022Z,469.00
2023-03-07T10:36:11.995Z,423.00
2023-03-07T10:37:12.001Z,517.00
2023-03-07T10:38:11.955Z,612.00
2023-03-07T10:39:11.999Z,733.00
2023-03-07T10:40:12.132Z,726.00
2023-03-07T10:41:11.980Z,652.00
2023-03-07T10:42:12.190Z,613.00
2023-03-07T10:43:12.293Z,611.00
2023-03-07T10:44:12.361Z,613.00
2023-03-07T10:45:12.650Z,1154.00
2023-03-07T10:46:23.699Z,969.00
2023-03-07T10:47:12.997Z,911.00
2023-03-07T10:48:12.480Z,885.00
2023-03-07T10:49:12.059Z,806.00
2023-03-07T10:50:11.951Z,779.00
2023-03-07T10:51:12.419Z,840.00
2023-03-07T10:52:12.097Z,873.00
2023-03-07T10:53:12.129Z,805.00
2023-03-07T10:55:31.183Z,500.00
2023-03-07T11:10:50.375Z,508.00
2023-03-07T11:15:50.982Z,534.00
2023-03-07T12:08:09.669Z,500.00
2023-03-07T12:09:09.335Z,500.00
2023-03-07T12:10:09.149Z,500.00
2023-03-07T12:11:09.371Z,500.00
2023-03-07T12:12:09.317Z,500.00
2023-03-07T12:13:09.170Z,500.00
2023-03-07T12:14:09.333Z,533.00
2023-03-07T12:15:10.048Z,520.00
2023-03-07T12:16:09.241Z,565.00
2023-03-07T12:17:09.565Z,571.00
2023-03-07T12:18:09.346Z,590.00
2023-03-07T12:19:09.408Z,626.00
2023-03-07T12:20:09.473Z,607.00
2023-03-07T12:21:09.530Z,557.00
2023-03-07T12:22:09.577Z,523.00
2023-03-07T12:23:09.561Z,614.00
2023-03-07T12:24:09.597Z,637.00
2023-03-07T12:25:10.277Z,663.00
2023-03-07T12:33:07.353Z,500.00
2023-03-07T12:34:06.833Z,500.00
2023-03-07T12:35:06.736Z,500.00
2023-03-07T12:36:07.497Z,500.00
2023-03-07T12:37:06.986Z,500.00
2023-03-07T12:38:07.044Z,433.00
2023-03-07T12:39:08.034Z,400.00
2023-03-07T12:40:06.654Z,448.00
2023-03-07T12:41:06.690Z,459.00
2023-03-07T12:42:06.717Z,623.00
2023-03-07T12:43:06.664Z,1152.00
2023-03-07T12:44:06.698Z,755.00
2023-03-07T12:45:06.680Z,684.00
2023-03-07T12:46:06.635Z,1144.00
2023-03-07T12:47:07.429Z,1456.00
2023-03-07T12:48:06.619Z,1769.00
2023-03-07T12:49:06.605Z,1966.00
2023-03-07T12:50:06.672Z,2124.00
2023-03-07T12:51:06.963Z,2232.00
2023-03-07T12:52:07.677Z,2291.00
2023-03-07T12:53:06.686Z,2308.00
2023-03-07T12:54:06.582Z,2349.00
2023-03-07T12:55:06.579Z,2375.00
2023-03-07T12:56:06.548Z,2364.00
2023-03-07T12:57:06.565Z,2583.00
2023-03-07T12:58:06.511Z,2783.00
2023-03-07T12:59:06.567Z,2815.00
2023-03-07T13:00:06.511Z,2805.00
2023-03-07T13:01:06.566Z,3002.00
2023-03-07T13:02:06.544Z,3109.00
2023-03-07T13:03:06.490Z,3148.00
2023-03-07T13:04:06.643Z,3208.00
2023-03-07T13:05:06.594Z,3118.00
2023-03-07T13:06:06.607Z,3036.00
2023-03-07T13:07:06.658Z,3216.00
2023-03-07T13:08:06.683Z,3616.00
2023-03-07T13:09:06.785Z,3988.00
2023-03-07T13:10:06.847Z,3734.00
2023-03-07T13:11:06.848Z,3606.00
2023-03-07T13:12:06.931Z,3543.00
2023-03-07T13:13:06.954Z,3573.00
2023-03-07T13:14:07.734Z,3782.00
2023-03-07T13:16:37.837Z,500.00
2023-03-07T14:10:22.314Z,500.00
2023-03-07T14:17:24.034Z,500.00
2023-03-07T14:18:23.880Z,500.00
2023-03-07T14:19:24.160Z,500.00
2023-03-07T14:20:24.145Z,500.00
2023-03-07T14:21:23.914Z,500.00
2023-03-07T14:22:23.895Z,500.00
2023-03-07T14:23:23.976Z,482.00
2023-03-07T14:24:24.202Z,502.00
2023-03-07T14:25:25.185Z,472.00
2023-03-07T14:26:23.949Z,495.00
2023-03-07T14:27:24.131Z,500.00
2023-03-07T14:28:24.267Z,496.00
2023-03-07T14:29:24.179Z,514.00
2023-03-07T14:30:24.188Z,541.00
2023-03-07T14:31:24.274Z,495.00
2023-03-07T14:33:43.097Z,500.00
2023-03-07T14:34:43.085Z,500.00
2023-03-07T14:35:43.062Z,500.00
2023-03-07T14:36:45.788Z,500.00
2023-03-07T14:37:42.943Z,500.00
2023-03-07T14:38:42.928Z,494.00
2023-03-07T14:39:43.002Z,505.00
2023-03-07T14:40:42.922Z,511.00
2023-03-07T14:41:42.938Z,511.00
2023-03-07T14:42:42.910Z,507.00
2023-03-07T14:43:42.895Z,514.00
2023-03-07T14:44:42.933Z,508.00
2023-03-07T14:45:42.870Z,500.00
2023-03-07T14:47:42.915Z,513.00
2023-03-07T14:48:43.030Z,501.00
2023-03-07T14:49:42.858Z,504.00
2023-03-07T14:50:42.867Z,512.00
2023-03-07T14:51:42.839Z,518.00
2023-03-07T14:53:42.829Z,504.00
2023-03-07T14:54:42.805Z,400.00
2023-03-07T14:55:42.894Z,400.00
2023-03-07T14:56:42.797Z,400.00
2023-03-07T14:59:02.177Z,500.00
2023-03-07T15:00:02.367Z,500.00
2023-03-07T15:01:01.930Z,500.00
2023-03-07T15:02:01.892Z,500.00
2023-03-07T15:03:01.808Z,500.00
2023-03-07T15:04:01.912Z,515.00
2023-03-07T15:05:01.734Z,554.00
2023-03-07T15:06:01.926Z,500.00
2023-03-07T15:07:01.867Z,538.00
2023-03-07T15:08:01.812Z,577.00
2023-03-07T15:09:01.878Z,591.00
2023-03-07T15:10:01.717Z,462.00
2023-03-07T15:11:02.696Z,405.00
2023-03-07T15:12:01.859Z,400.00
2023-03-07T15:13:01.708Z,564.00
2023-03-07T15:14:02.689Z,598.00
2023-03-07T15:15:01.785Z,573.00
2023-03-07T15:16:01.675Z,624.00
2023-03-07T15:17:01.799Z,643.00
2023-03-07T15:18:01.706Z,759.00
2023-03-07T15:19:01.750Z,818.00
2023-03-07T15:20:01.638Z,630.00
2023-03-07T15:21:02.661Z,400.00
2023-03-07T15:22:01.694Z,400.00
2023-03-07T15:23:01.624Z,400.00
2023-03-07T15:24:01.917Z,500.00
2023-03-07T15:25:02.677Z,609.00
2023-03-07T15:26:01.766Z,601.00
2023-03-07T15:27:01.775Z,639.00
2023-03-07T15:28:02.608Z,659.00
2023-03-07T15:29:01.655Z,868.00
2023-03-07T15:30:01.690Z,948.00
2023-03-07T15:31:01.691Z,1009.00
2023-03-07T15:32:01.721Z,1051.00
2023-03-07T15:33:02.657Z,1119.00
2023-03-07T15:34:01.528Z,1111.00
2023-03-07T15:35:01.581Z,1116.00
2023-03-07T15:36:01.673Z,1121.00
2023-03-07T15:37:16.719Z,1148.00
2023-03-07T15:38:01.816Z,1150.00
2023-03-07T15:39:01.744Z,1159.00
2023-03-07T15:40:01.840Z,1180.00
2023-03-07T15:41:01.761Z,1212.00
2023-03-07T15:42:01.501Z,1266.00
2023-03-07T15:43:03.404Z,1254.00
2023-03-07T15:44:01.384Z,1242.00
2023-03-07T15:45:01.385Z,1238.00
2023-03-07T15:46:01.404Z,1233.00
2023-03-07T15:47:01.452Z,1278.00
2023-03-07T15:48:01.388Z,1325.00
2023-03-07T15:49:01.403Z,1328.00
2023-03-07T15:50:01.346Z,1360.00
2023-03-07T15:51:01.416Z,1348.00
2023-03-07T15:52:01.364Z,1388.00
2023-03-07T15:53:01.337Z,1400.00
2023-03-07T15:54:01.317Z,1377.00
2023-03-07T15:55:01.349Z,1396.00
2023-03-07T15:56:01.280Z,1373.00
2023-03-07T15:57:01.339Z,1394.00
2023-03-07T15:58:01.305Z,1376.00
2023-03-07T15:59:01.323Z,1411.00
2023-03-07T16:00:01.315Z,1399.00
2023-03-07T16:01:01.276Z,1392.00
2023-03-07T16:02:01.320Z,1394.00
2023-03-07T16:03:01.371Z,1395.00
2023-03-07T16:04:01.327Z,1385.00
2023-03-07T16:05:01.290Z,1395.00
2023-03-07T16:06:01.219Z,1349.00
2023-03-07T16:07:01.425Z,1350.00
2023-03-07T16:08:01.225Z,1294.00
2023-03-07T16:09:01.226Z,1321.00
2023-03-07T16:10:01.220Z,1362.00
2023-03-07T16:11:01.232Z,1403.00
2023-03-07T16:12:01.239Z,1404.00
2023-03-07T16:13:01.209Z,1354.00
2023-03-07T16:14:01.261Z,1299.00
2023-03-07T16:15:01.214Z,1330.00
2023-03-07T16:16:01.252Z,1383.00
2023-03-07T16:17:01.206Z,1389.00
2023-03-07T16:18:01.266Z,1398.00
2023-03-07T16:19:01.204Z,1379.00
2023-03-07T16:20:01.147Z,1405.00
2023-03-07T16:21:01.146Z,1402.00
2023-03-07T16:22:01.181Z,1423.00
2023-03-07T16:23:01.231Z,1428.00
2023-03-07T16:24:01.146Z,1414.00
2023-03-07T16:25:01.100Z,1405.00
2023-03-07T16:26:01.141Z,1397.00
2023-03-07T16:27:01.122Z,1408.00
2023-03-07T16:28:01.112Z,1427.00
2023-03-07T16:29:01.079Z,1424.00
2023-03-07T16:30:01.114Z,1427.00
2023-03-07T16:31:01.109Z,1431.00
2023-03-07T16:32:01.127Z,1424.00
2023-03-07T16:33:01.076Z,1453.00
2023-03-07T16:34:01.064Z,1441.00
2023-03-07T16:35:01.029Z,1432.00
2023-03-07T16:36:01.141Z,1410.00
2023-03-07T16:37:01.063Z,1385.00
2023-03-07T16:38:01.005Z,1424.00
2023-03-07T16:39:01.010Z,1435.00
2023-03-07T16:40:01.069Z,1420.00
2023-03-07T16:41:01.096Z,1438.00
2023-03-07T16:42:01.011Z,1442.00
2023-03-07T16:43:00.977Z,1426.00
2023-03-07T16:44:00.988Z,1400.00
2023-03-07T16:45:00.999Z,1443.00
2023-03-07T16:46:01.025Z,1432.00
2023-03-07T16:47:00.962Z,1435.00
2023-03-07T16:48:00.975Z,1456.00
2023-03-07T16:49:00.916Z,1469.00
2023-03-07T16:50:01.050Z,1470.00
2023-03-07T16:51:00.946Z,1466.00
2023-03-07T16:52:06.017Z,1461.00
2023-03-07T16:53:01.912Z,1462.00
2023-03-07T16:54:00.911Z,1462.00
2023-03-07T16:55:00.925Z,1457.00
2023-03-07T16:56:00.870Z,1460.00
2023-03-07T16:57:00.907Z,1465.00
2023-03-07T16:58:00.906Z,1380.00
2023-03-07T16:59:00.897Z,1303.00
2023-03-07T17:00:00.933Z,1274.00
2023-03-07T17:01:00.974Z,657.00
2023-03-07T17:02:00.871Z,866.00
2023-03-07T17:03:00.869Z,870.00
2023-03-07T17:04:00.824Z,926.00
2023-03-07T17:05:00.820Z,942.00
2023-03-07T17:06:00.846Z,961.00
2023-03-07T17:07:04.741Z,1002.00
2023-03-07T17:08:00.795Z,1005.00
2023-03-07T17:09:00.825Z,1013.00
2023-03-07T17:10:00.888Z,1049.00
2023-03-07T17:11:00.791Z,1142.00
2023-03-07T17:12:00.883Z,1270.00
2023-03-07T17:13:00.992Z,1211.00
2023-03-07T17:14:00.778Z,1229.00
2023-03-07T17:15:00.756Z,1264.00
2023-03-07T17:16:00.737Z,1292.00
2023-03-07T17:17:00.791Z,1324.00
2023-03-07T17:18:00.727Z,1274.00
2023-03-07T17:19:00.883Z,1275.00
2023-03-07T17:20:00.752Z,1322.00
2023-03-07T17:21:00.730Z,1318.00
2023-03-07T17:22:00.743Z,1341.00
2023-03-07T17:23:00.667Z,1392.00
2023-03-07T17:24:00.818Z,1389.00
2023-03-07T17:25:01.345Z,1416.00
2023-03-07T17:26:00.749Z,1419.00
2023-03-07T17:27:00.764Z,1423.00
2023-03-07T17:28:00.749Z,1441.00
2023-03-07T17:29:00.745Z,1446.00
2023-03-07T17:30:00.693Z,1426.00
2023-03-07T17:31:00.756Z,1423.00
2023-03-07T17:32:00.715Z,1465.00
2023-03-07T17:33:00.760Z,1446.00
2023-03-07T17:34:00.725Z,1421.00
2023-03-07T17:35:00.734Z,1444.00
2023-03-07T17:36:00.724Z,1459.00
2023-03-07T17:37:00.662Z,1493.00
2023-03-07T17:38:00.680Z,1488.00
2023-03-07T17:39:00.612Z,1459.00
2023-03-07T17:40:00.602Z,1469.00
2023-03-07T17:47:00.537Z,1457.00
2023-03-07T17:48:00.560Z,1475.00
2023-03-07T17:49:00.597Z,1512.00
2023-03-07T17:50:00.496Z,1509.00
2023-03-07T17:51:00.471Z,1508.00
2023-03-07T17:52:00.530Z,1519.00
2023-03-07T17:53:00.489Z,1520.00
2023-03-07T17:54:00.536Z,1488.00
2023-03-07T17:55:00.527Z,1487.00
2023-03-07T17:56:00.578Z,1490.00
2023-03-07T17:57:00.909Z,1494.00
2023-03-07T17:58:01.034Z,1496.00
2023-03-07T17:59:00.702Z,1459.00
2023-03-07T18:00:00.634Z,1496.00
2023-03-07T18:01:00.735Z,1500.00
2023-03-07T18:02:00.818Z,1493.00
2023-03-07T18:03:00.820Z,1497.00
2023-03-07T18:04:00.886Z,1511.00
2023-03-07T18:05:00.873Z,1530.00
2023-03-07T18:06:00.859Z,1527.00
2023-03-07T18:07:00.887Z,1529.00
2023-03-07T18:08:00.796Z,1531.00
2023-03-07T18:09:00.817Z,1529.00
2023-03-07T18:10:07.890Z,1538.00
2023-03-07T18:12:00.970Z,1539.00
2023-03-07T18:13:00.910Z,1538.00
2023-03-07T18:14:00.849Z,1523.00
2023-03-07T18:15:00.824Z,1494.00
2023-03-07T18:16:00.843Z,1472.00
2023-03-07T18:17:00.843Z,1471.00
2023-03-07T18:18:01.025Z,1473.00
2023-03-07T18:19:03.543Z,1482.00
2023-03-07T18:21:20.083Z,500.00
2023-03-07T18:22:20.487Z,500.00
2023-03-07T18:23:20.014Z,500.00
2023-03-07T18:24:19.751Z,500.00
2023-03-07T18:25:19.653Z,500.00
2023-03-07T18:26:20.717Z,500.00
2023-03-07T18:27:19.669Z,503.00
2023-03-07T18:28:20.564Z,510.00
2023-03-07T18:29:19.565Z,508.00
2023-03-07T18:30:19.543Z,503.00
2023-03-07T18:31:19.624Z,500.00
2023-03-07T18:32:19.751Z,502.00
2023-03-07T18:33:19.565Z,520.00
2023-03-07T18:35:20.620Z,507.00
2023-03-07T18:36:19.578Z,500.00
2023-03-07T18:37:19.594Z,500.00
2023-03-07T18:38:19.560Z,506.00
2023-03-07T19:22:17.370Z,500.00
2023-03-07T19:23:17.249Z,500.00
2023-03-07T19:24:17.074Z,500.00
2023-03-07T19:25:16.646Z,500.00
2023-03-07T19:26:16.663Z,500.00
2023-03-07T19:27:16.880Z,502.00
2023-03-07T19:28:16.690Z,505.00
2023-03-07T19:29:16.634Z,509.00
2023-03-07T19:30:16.646Z,525.00
2023-03-07T19:31:16.693Z,531.00
2023-03-07T19:32:16.758Z,537.00
2023-03-07T19:33:16.591Z,541.00
2023-03-07T19:34:16.600Z,546.00
2023-03-07T19:35:16.639Z,539.00
2023-03-07T19:36:16.615Z,527.00
2023-03-07T19:37:16.575Z,529.00
2023-03-07T19:38:16.616Z,528.00
2023-03-07T19:39:16.602Z,532.00
2023-03-07T19:40:16.523Z,529.00
2023-03-07T19:41:16.535Z,531.00
2023-03-07T19:42:16.611Z,528.00
2023-03-07T19:43:16.556Z,527.00
2023-03-07T19:44:16.534Z,536.00
2023-03-07T19:45:16.562Z,540.00
2023-03-07T19:46:16.582Z,543.00
2023-03-07T19:47:16.536Z,539.00
2023-03-07T19:48:16.502Z,524.00
2023-03-07T19:49:16.494Z,521.00
2023-03-07T19:50:16.452Z,519.00
2023-03-07T19:51:16.455Z,515.00
2023-03-07T19:52:16.528Z,504.00
2023-03-07T19:53:16.534Z,513.00
2023-03-07T19:54:17.160Z,507.00
2023-03-07T20:06:13.795Z,500.00
2023-03-07T20:07:14.796Z,500.00
2023-03-07T20:08:14.557Z,500.00
2023-03-07T20:09:13.549Z,500.00
2023-03-07T20:10:13.386Z,500.00
2023-03-07T20:11:13.504Z,500.00
2023-03-07T20:13:32.817Z,500.00
2023-03-07T20:19:45.437Z,500.00
2023-03-07T20:20:45.256Z,500.00
2023-03-07T20:21:45.244Z,500.00
2023-03-07T20:22:45.364Z,500.00
2023-03-07T20:23:45.300Z,500.00
2023-03-07T20:24:45.317Z,500.00
2023-03-07T20:25:45.408Z,500.00
2023-03-07T20:26:45.391Z,500.00
2023-03-07T20:27:45.474Z,501.00
2023-03-07T20:28:45.513Z,500.00
2023-03-07T20:29:45.555Z,501.00
2023-03-07T20:30:45.705Z,500.00
2023-03-07T20:31:45.675Z,506.00
2023-03-07T20:32:45.761Z,506.00
2023-03-07T20:33:45.775Z,510.00
2023-03-07T20:34:46.166Z,509.00
2023-03-07T20:35:46.224Z,509.00
2023-03-07T20:36:46.430Z,505.00
2023-03-07T20:37:46.198Z,510.00
2023-03-07T20:38:46.434Z,513.00
2023-03-07T20:39:46.188Z,507.00
2023-03-07T20:40:46.442Z,514.00
2023-03-07T20:43:05.706Z,500.00
2023-03-07T20:44:05.568Z,500.00
2023-03-07T20:45:05.932Z,500.00
2023-03-07T20:47:24.836Z,500.00
2023-03-07T21:29:34.588Z,500.00
2023-03-07T21:33:18.248Z,500.00
2023-03-07T21:34:18.457Z,500.00
2023-03-07T21:35:18.457Z,500.00
2023-03-07T21:36:19.327Z,500.00
2023-03-07T21:38:37.109Z,500.00
2023-03-07T21:39:37.232Z,500.00
2023-03-07T21:40:38.006Z,500.00
2023-03-07T21:41:36.974Z,500.00
2023-03-07T21:42:36.992Z,500.00
2023-03-07T21:43:36.956Z,500.00
2023-03-07T21:44:37.139Z,500.00
2023-03-07T21:45:37.902Z,506.00
2023-03-07T21:46:36.946Z,503.00
2023-03-07T21:47:37.923Z,503.00
2023-03-07T21:48:36.968Z,507.00
2023-03-07T21:49:36.929Z,501.00
2023-03-07T21:50:36.979Z,504.00
2023-03-07T21:51:36.914Z,505.00
2023-03-07T21:59:26.574Z,500.00
2023-03-07T22:00:26.184Z,500.00
2023-03-07T22:01:26.097Z,500.00
2023-03-07T22:02:26.021Z,500.00
2023-03-07T22:03:26.048Z,500.00
2023-03-07T22:04:26.128Z,501.00
2023-03-07T22:05:26.028Z,504.00
2023-03-07T22:06:26.012Z,505.00
2023-03-07T22:07:25.985Z,506.00
2023-03-07T22:08:26.013Z,503.00
2023-03-07T22:09:26.148Z,501.00
2023-03-07T22:10:26.300Z,506.00
2023-03-07T22:17:31.749Z,500.00
2023-03-07T22:18:31.631Z,500.00
2023-03-07T22:19:31.498Z,500.00
2023-03-07T22:20:31.445Z,500.00
2023-03-07T22:21:31.782Z,500.00
2023-03-07T22:22:31.963Z,500.00
2023-03-07T22:23:31.958Z,500.00
2023-03-07T22:24:31.659Z,503.00
2023-03-07T22:25:31.684Z,503.00
2023-03-07T22:26:32.186Z,502.00
2023-03-07T22:27:31.894Z,500.00
2023-03-07T22:28:31.772Z,503.00
2023-03-07T22:29:32.268Z,512.00
2023-03-07T22:30:32.907Z,510.00
2023-03-07T22:31:32.015Z,507.00
2023-03-07T22:32:32.038Z,504.00
2023-03-07T22:33:33.331Z,505.00
2023-03-07T22:34:32.142Z,500.00
2023-03-07T22:35:32.136Z,511.00
2023-03-07T22:36:32.223Z,513.00
2023-03-07T22:37:32.212Z,506.00
2023-03-07T22:38:32.095Z,514.00
2023-03-07T22:39:32.010Z,508.00
2023-03-07T22:41:51.242Z,500.00
2023-03-07T22:42:51.429Z,500.00
2023-03-07T22:43:50.916Z,500.00
2023-03-07T22:44:50.843Z,500.00
2023-03-07T22:45:50.933Z,500.00
2023-03-07T22:46:50.815Z,503.00
2023-03-07T22:47:50.825Z,508.00
2023-03-07T22:48:50.851Z,501.00
2023-03-07T22:49:50.873Z,502.00
2023-03-07T22:50:50.791Z,500.00
2023-03-07T22:51:50.809Z,508.00
2023-03-07T22:52:50.814Z,509.00
2023-03-07T22:53:50.801Z,502.00
2023-03-07T22:54:50.748Z,500.00
2023-03-07T22:55:50.795Z,508.00
2023-03-07T22:56:50.776Z,501.00
2023-03-07T22:57:50.794Z,510.00
2023-03-07T23:07:10.633Z,500.00
2023-03-07T23:26:53.930Z,500.00
2023-03-07T23:27:53.993Z,500.00
2023-03-07T23:30:12.691Z,500.00
2023-03-07T23:32:31.713Z,500.00
2023-03-07T23:33:31.680Z,500.00
